TAF KCTB
KCTB 081731Z 0818/0918 26037G54KT P6SM BKN150 WS020/27045KT FM082300 27034G50KT P6SM SCT150 FM090100 27021G34KT P6SM SCT150 FM091100 26014G25KT P6SM FEW150=
METAR KCTB
WC KCTB
WS KCTB
WV KCTB